Time;durP1;ratioP1;P1;durP2;ratioP2;P2;SDS_P1;SDS_P2;PMS_P1;PMS_P2;Temp;Humidity;BMP_temperature;BMP_pressure;BME280_temperature;BME280_humidity;BME280_pressure;Samples;Min_cycle;Max_cycle;Signal;HPM_P1;HPM_P2
2023/03/05 00:00:27;;;;;;;;;;;;;;;;;;5053658;28;19912;-46
2023/03/05 00:02:52;;;;;;;;;;;;;;;;;;5052201;28;20382;-48
2023/03/05 00:05:18;;;;;;;;;;;;;;;;;;5052134;28;20023;-43
2023/03/05 00:07:44;;;;;;;;;;;;;;;;;;5052218;28;19943;-45
2023/03/05 00:10:10;;;;;;;;;;;;;;;;;;5050407;28;19909;-44
2023/03/05 00:12:36;;;;;;;;;;;;;;;;;;5060101;28;19991;-44
2023/03/05 00:15:02;;;;;;;;;;;;;;;;;;5054598;28;19908;-44
2023/03/05 00:17:28;;;;;;;;;;;;;;;;;;5063990;28;19919;-46
2023/03/05 00:19:55;;;;;;;;;;;;;;;;;;5064549;28;19913;-45
2023/03/05 00:22:21;;;;;;;;;;;;;;;;;;5050432;28;19908;-44
2023/03/05 00:24:47;;;;;;;;;;;;;;;;;;5052740;28;20293;-49
2023/03/05 00:27:13;;;;;;;;;;;;;;;;;;5051656;28;20007;-46
2023/03/05 00:29:39;;;;;;;;;;;;;;;;;;5056282;28;20002;-44
2023/03/05 00:32:05;;;;;;;;;;;;;;;;;;5051680;28;19940;-50
2023/03/05 00:34:31;;;;;;;;;;;;;;;;;;5055467;28;19909;-44
2023/03/05 00:36:57;;;;;;;;;;;;;;;;;;5051493;28;19915;-44
2023/03/05 00:39:23;;;;;;;;;;;;;;;;;;5050632;28;19913;-44
2023/03/05 00:41:49;;;;;;;;;;;;;;;;;;5068824;28;19942;-45
2023/03/05 00:44:15;;;;;;;;;;;;;;;;;;5068831;28;19930;-44
2023/03/05 00:46:41;;;;;;;;;;;;;;;;;;5069781;28;19917;-44
2023/03/05 00:49:06;;;;;;;;;;;;;;;;;;5055801;28;19916;-47
2023/03/05 00:51:32;;;;;;;;;;;;;;;;;;5068484;28;20358;-48
2023/03/05 00:53:58;;;;;;;;;;;;;;;;;;5062724;28;19951;-46
2023/03/05 00:56:24;;;;;;;;;;;;;;;;;;5069173;28;19934;-44
2023/03/05 00:58:52;;;;;;;;;;;;;;;;;;5067907;28;19958;-44
2023/03/05 01:01:17;;;;;;;;;;;;;;;;;;5072588;28;19911;-42
2023/03/05 01:03:43;;;;;;;;;;;;;;;;;;5076096;28;19965;-45
2023/03/05 01:06:09;;;;;;;;;;;;;;;;;;5068785;28;19971;-45
2023/03/05 01:08:35;;;;;;;;;;;;;;;;;;5076180;28;19920;-46
2023/03/05 01:11:01;;;;;;;;;;;;;;;;;;5076920;28;19904;-47
2023/03/05 01:13:27;;;;;;;;;;;;;;;;;;5070693;28;19912;-44
2023/03/05 01:15:53;;;;;;;;;;;;;;;;;;5053470;28;20433;-44
2023/03/05 01:18:19;;;;;;;;;;;;;;;;;;5070114;28;19915;-46
2023/03/05 01:20:45;;;;;;;;;;;;;;;;;;5070376;28;19912;-45
2023/03/05 01:23:10;;;;;;;;;;;;;;;;;;5049209;28;19924;-45
2023/03/05 01:25:36;;;;;;;;;;;;;;;;;;5056052;28;19916;-44
2023/03/05 01:28:02;;;;;;;;;;;;;;;;;;5053875;28;19925;-44
2023/03/05 01:30:28;;;;;;;;;;;;;;;;;;5035593;28;19915;-43
2023/03/05 01:32:54;;;;;;;;;;;;;;;;;;5065945;28;20355;-44
2023/03/05 01:35:20;;;;;;;;;;;;;;;;;;5051303;28;19958;-46
2023/03/05 01:37:46;;;;;;;;;;;;;;;;;;5058735;28;19954;-45
2023/03/05 01:40:11;;;;;;;;;;;;;;;;;;5061434;28;19904;-45
2023/03/05 01:42:37;;;;;;;;;;;;;;;;;;5070560;28;20354;-45
2023/03/05 01:45:03;;;;;;;;;;;;;;;;;;5067285;28;19908;-45
2023/03/05 01:47:29;;;;;;;;;;;;;;;;;;5050263;28;19971;-45
2023/03/05 01:49:55;;;;;;;;;;;;;;;;;;5050531;28;19920;-44
2023/03/05 01:52:21;;;;;;;;;;;;;;;;;;5058725;28;19912;-45
2023/03/05 01:54:47;;;;;;;;;;;;;;;;;;5051429;28;19958;-45
2023/03/05 01:57:13;;;;;;;;;;;;;;;;;;5061672;28;19916;-46
2023/03/05 01:59:39;;;;;;;;;;;;;;;;;;5055980;28;19916;-45
2023/03/05 02:02:06;;;;;;;;;;;;;;;;;;5053347;28;20378;-46
2023/03/05 02:04:32;;;;;;;;;;;;;;;;;;5068647;28;19908;-44
2023/03/05 02:06:58;;;;;;;;;;;;;;;;;;5070588;28;19919;-46
2023/03/05 02:09:24;;;;;;;;;;;;;;;;;;5068634;28;19918;-46
2023/03/05 02:11:50;;;;;;;;;;;;;;;;;;5065335;28;19939;-44
2023/03/05 02:14:16;;;;;;;;;;;;;;;;;;5061424;28;19969;-45
2023/03/05 02:16:42;;;;;;;;;;;;;;;;;;5050793;28;19915;-47
2023/03/05 02:19:08;;;;;;;;;;;;;;;;;;5065290;28;19909;-45
2023/03/05 02:21:34;;;;;;;;;;;;;;;;;;5053307;28;20401;-44
2023/03/05 02:23:59;;;;;;;;;;;;;;;;;;5069022;28;19934;-44
2023/03/05 02:26:25;;;;;;;;;;;;;;;;;;5054119;28;19940;-47
2023/03/05 02:28:51;;;;;;;;;;;;;;;;;;5057880;28;19965;-44
2023/03/05 02:31:17;;;;;;;;;;;;;;;;;;5052958;28;19920;-50
2023/03/05 02:33:43;;;;;;;;;;;;;;;;;;5055767;28;19956;-44
2023/03/05 02:36:10;;;;;;;;;;;;;;;;;;5049293;28;20255;-46
2023/03/05 02:38:36;;;;;;;;;;;;;;;;;;5057756;28;19916;-43
2023/03/05 02:41:02;;;;;;;;;;;;;;;;;;5050094;28;20460;-44
2023/03/05 02:43:28;;;;;;;;;;;;;;;;;;5051057;28;19912;-44
2023/03/05 02:45:54;;;;;;;;;;;;;;;;;;5048402;28;20407;-45
2023/03/05 02:48:20;;;;;;;;;;;;;;;;;;5062485;28;19917;-46
2023/03/05 02:50:46;;;;;;;;;;;;;;;;;;5054254;28;20351;-44
2023/03/05 02:53:11;;;;;;;;;;;;;;;;;;5070613;28;19954;-44
2023/03/05 02:55:37;;;;;;;;;;;;;;;;;;5053797;28;19916;-48
2023/03/05 02:58:03;;;;;;;;;;;;;;;;;;5054328;28;19935;-44
2023/03/05 03:00:29;;;;;;;;;;;;;;;;;;5052932;28;19955;-43
2023/03/05 03:02:55;;;;;;;;;;;;;;;;;;5053570;28;20375;-44
2023/03/05 03:05:21;;;;;;;;;;;;;;;;;;5057491;28;20317;-45
2023/03/05 03:07:47;;;;;;;;;;;;;;;;;;5053855;28;20012;-45
2023/03/05 03:10:13;;;;;;;;;;;;;;;;;;5052443;28;20358;-44
2023/03/05 03:12:38;;;;;;;;;;;;;;;;;;5037225;28;19912;-44
2023/03/05 03:15:04;;;;;;;;;;;;;;;;;;5053006;28;19999;-44
2023/03/05 03:17:30;;;;;;;;;;;;;;;;;;5061338;28;19909;-43
2023/03/05 03:19:56;;;;;;;;;;;;;;;;;;5056718;28;19962;-44
2023/03/05 03:22:22;;;;;;;;;;;;;;;;;;5054467;28;20236;-45
2023/03/05 03:24:48;;;;;;;;;;;;;;;;;;5060187;28;19908;-44
2023/03/05 03:27:14;;;;;;;;;;;;;;;;;;5072124;28;19908;-43
2023/03/05 03:29:39;;;;;;;;;;;;;;;;;;5070977;28;19967;-45
2023/03/05 03:32:07;;;;;;;;;;;;;;;;;;5054535;28;19934;-45
2023/03/05 03:34:32;;;;;;;;;;;;;;;;;;5054158;28;19923;-44
2023/03/05 03:36:58;;;;;;;;;;;;;;;;;;5054634;28;19908;-44
2023/03/05 03:39:24;;;;;;;;;;;;;;;;;;5052326;28;19988;-45
2023/03/05 03:41:50;;;;;;;;;;;;;;;;;;5036549;28;20306;-45
2023/03/05 03:44:19;;;;;;;;;;;;;;;;;;5051836;28;19915;-43
2023/03/05 03:46:45;;;;;;;;;;;;;;;;;;5053084;28;19916;-43
2023/03/05 03:49:11;;;;;;;;;;;;;;;;;;5053239;28;19923;-44
2023/03/05 03:51:36;;;;;;;;;;;;;;;;;;5071041;28;19916;-46
2023/03/05 03:54:02;;;;;;;;;;;;;;;;;;5061475;28;19915;-45
2023/03/05 03:56:28;;;;;;;;;;;;;;;;;;5051971;28;20282;-45
2023/03/05 03:58:54;;;;;;;;;;;;;;;;;;5052962;28;19995;-44
2023/03/05 04:01:20;;;;;;;;;;;;;;;;;;5067420;28;19909;-46
2023/03/05 04:03:46;;;;;;;;;;;;;;;;;;5071722;28;20278;-44
2023/03/05 04:06:12;;;;;;;;;;;;;;;;;;5071000;28;19912;-43
2023/03/05 04:08:38;;;;;;;;;;;;;;;;;;5071025;28;20027;-45
2023/03/05 04:11:04;;;;;;;;;;;;;;;;;;5066030;28;19912;-44
2023/03/05 04:13:29;;;;;;;;;;;;;;;;;;5071772;28;19912;-43
2023/03/05 04:15:55;;;;;;;;;;;;;;;;;;5057557;28;19962;-43
2023/03/05 04:18:21;;;;;;;;;;;;;;;;;;5053278;28;19908;-44
2023/03/05 04:20:47;;;;;;;;;;;;;;;;;;5054356;28;19916;-47
2023/03/05 04:23:13;;;;;;;;;;;;;;;;;;5071444;28;19966;-47
2023/03/05 04:25:39;;;;;;;;;;;;;;;;;;5071327;28;19951;-44
2023/03/05 04:28:05;;;;;;;;;;;;;;;;;;5061934;28;19921;-45
2023/03/05 04:30:30;;;;;;;;;;;;;;;;;;5068804;28;19916;-43
2023/03/05 04:32:56;;;;;;;;;;;;;;;;;;5056395;28;20410;-43
2023/03/05 04:35:22;;;;;;;;;;;;;;;;;;5070092;28;19935;-43
2023/03/05 04:37:48;;;;;;;;;;;;;;;;;;5070539;28;19915;-43
2023/03/05 04:40:14;;;;;;;;;;;;;;;;;;5070104;28;19947;-44
2023/03/05 04:42:40;;;;;;;;;;;;;;;;;;5070395;28;19953;-44
2023/03/05 04:45:06;;;;;;;;;;;;;;;;;;5069206;28;19908;-44
2023/03/05 04:47:32;;;;;;;;;;;;;;;;;;5058211;28;19916;-44
2023/03/05 04:49:58;;;;;;;;;;;;;;;;;;5070559;28;20325;-45
2023/03/05 04:52:24;;;;;;;;;;;;;;;;;;5066693;28;20000;-44
2023/03/05 04:54:50;;;;;;;;;;;;;;;;;;5051616;28;19948;-44
2023/03/05 04:57:16;;;;;;;;;;;;;;;;;;5052441;28;19908;-46
2023/03/05 04:59:41;;;;;;;;;;;;;;;;;;5051117;28;19909;-45
2023/03/05 05:02:07;;;;;;;;;;;;;;;;;;5064038;28;19909;-46
2023/03/05 05:04:34;;;;;;;;;;;;;;;;;;5070353;28;19912;-44
2023/03/05 05:07:00;;;;;;;;;;;;;;;;;;5071267;28;19908;-44
2023/03/05 05:09:26;;;;;;;;;;;;;;;;;;5069733;28;19912;-44
2023/03/05 05:11:52;;;;;;;;;;;;;;;;;;5067587;28;20445;-44
2023/03/05 05:14:18;;;;;;;;;;;;;;;;;;5050255;28;20382;-43
2023/03/05 05:16:44;;;;;;;;;;;;;;;;;;5052328;28;19960;-43
2023/03/05 05:19:10;;;;;;;;;;;;;;;;;;5049776;28;20359;-44
2023/03/05 05:21:36;;;;;;;;;;;;;;;;;;5051435;28;19909;-43
2023/03/05 05:24:02;;;;;;;;;;;;;;;;;;5059542;28;20305;-43
2023/03/05 05:26:27;;;;;;;;;;;;;;;;;;5068610;28;19944;-46
2023/03/05 05:28:53;;;;;;;;;;;;;;;;;;5068386;28;19962;-44
2023/03/05 05:31:19;;;;;;;;;;;;;;;;;;5064428;28;19912;-45
2023/03/05 05:33:45;;;;;;;;;;;;;;;;;;5062853;28;19912;-43
2023/03/05 05:36:11;;;;;;;;;;;;;;;;;;5057923;28;19909;-43
2023/03/05 05:38:37;;;;;;;;;;;;;;;;;;5056750;28;19908;-44
2023/03/05 05:41:03;;;;;;;;;;;;;;;;;;5069814;28;20301;-44
2023/03/05 05:43:29;;;;;;;;;;;;;;;;;;5061710;28;19908;-44
2023/03/05 05:45:55;;;;;;;;;;;;;;;;;;5068931;28;19908;-44
2023/03/05 05:48:21;;;;;;;;;;;;;;;;;;5069208;28;19966;-44
2023/03/05 05:50:47;;;;;;;;;;;;;;;;;;5057491;28;20006;-48
2023/03/05 05:53:13;;;;;;;;;;;;;;;;;;5063907;28;20034;-46
2023/03/05 05:55:39;;;;;;;;;;;;;;;;;;5050880;28;19913;-47
2023/03/05 05:58:04;;;;;;;;;;;;;;;;;;5060394;28;20359;-49
2023/03/05 06:00:30;;;;;;;;;;;;;;;;;;5061058;28;19991;-46
2023/03/05 06:02:56;;;;;;;;;;;;;;;;;;5065341;28;19908;-47
2023/03/05 06:05:22;;;;;;;;;;;;;;;;;;5061801;28;19909;-48
2023/03/05 06:07:48;;;;;;;;;;;;;;;;;;5063525;28;19916;-46
2023/03/05 06:10:14;;;;;;;;;;;;;;;;;;5048187;28;19908;-49
2023/03/05 06:12:40;;;;;;;;;;;;;;;;;;5058596;28;19958;-45
2023/03/05 06:15:06;;;;;;;;;;;;;;;;;;5064639;28;20378;-51
2023/03/05 06:17:31;;;;;;;;;;;;;;;;;;5049799;28;19911;-46
2023/03/05 06:19:57;;;;;;;;;;;;;;;;;;5048878;28;19908;-46
2023/03/05 06:22:23;;;;;;;;;;;;;;;;;;5061936;28;20808;-46
2023/03/05 06:24:49;;;;;;;;;;;;;;;;;;5054219;28;19905;-46
2023/03/05 06:27:15;;;;;;;;;;;;;;;;;;5051159;28;20333;-46
2023/03/05 06:29:41;;;;;;;;;;;;;;;;;;5054474;28;19916;-47
2023/03/05 06:32:07;;;;;;;;;;;;;;;;;;5053407;28;19908;-48
2023/03/05 06:34:33;;;;;;;;;;;;;;;;;;5069887;28;19908;-46
2023/03/05 06:36:59;;;;;;;;;;;;;;;;;;5055447;28;19916;-48
2023/03/05 06:39:24;;;;;;;;;;;;;;;;;;5072008;28;20173;-47
2023/03/05 06:41:50;;;;;;;;;;;;;;;;;;5055712;28;19955;-46
2023/03/05 06:44:16;;;;;;;;;;;;;;;;;;5071588;28;19908;-46
2023/03/05 06:46:42;;;;;;;;;;;;;;;;;;5056451;28;19924;-46
2023/03/05 06:49:08;;;;;;;;;;;;;;;;;;5069637;28;20434;-47
2023/03/05 06:51:34;;;;;;;;;;;;;;;;;;5056949;28;19913;-46
2023/03/05 06:54:00;;;;;;;;;;;;;;;;;;5068647;28;19916;-49
2023/03/05 06:56:26;;;;;;;;;;;;;;;;;;5057445;28;19904;-46
2023/03/05 06:58:52;;;;;;;;;;;;;;;;;;5054032;28;20305;-46
2023/03/05 07:01:18;;;;;;;;;;;;;;;;;;5051578;28;19915;-45
2023/03/05 07:03:43;;;;;;;;;;;;;;;;;;5052501;28;19948;-45
2023/03/05 07:06:09;;;;;;;;;;;;;;;;;;5059122;28;19916;-47
2023/03/05 07:08:35;;;;;;;;;;;;;;;;;;5058816;28;19982;-46
2023/03/05 07:11:01;;;;;;;;;;;;;;;;;;5052605;28;19955;-44
2023/03/05 07:13:27;;;;;;;;;;;;;;;;;;5071878;28;19904;-45
2023/03/05 07:15:53;;;;;;;;;;;;;;;;;;5062383;28;20286;-45
2023/03/05 07:18:19;;;;;;;;;;;;;;;;;;5062916;28;20002;-47
2023/03/05 07:20:45;;;;;;;;;;;;;;;;;;5064326;28;19944;-46
2023/03/05 07:23:11;;;;;;;;;;;;;;;;;;5061933;28;20341;-46
2023/03/05 07:25:37;;;;;;;;;;;;;;;;;;5058866;28;19912;-46
2023/03/05 07:28:04;;;;;;;;;;;;;;;;;;5072146;28;20394;-45
2023/03/05 07:30:30;;;;;;;;;;;;;;;;;;5054287;28;19904;-44
2023/03/05 07:32:56;;;;;;;;;;;;;;;;;;5059426;28;19957;-44
2023/03/05 07:35:23;;;;;;;;;;;;;;;;;;5050829;28;19909;-45
2023/03/05 07:37:49;;;;;;;;;;;;;;;;;;5052161;28;20272;-44
2023/03/05 07:40:15;;;;;;;;;;;;;;;;;;5051829;28;19909;-41
2023/03/05 07:42:40;;;;;;;;;;;;;;;;;;5053657;28;20003;-46
2023/03/05 07:45:06;;;;;;;;;;;;;;;;;;5051258;28;19908;-48
2023/03/05 07:47:32;;;;;;;;;;;;;;;;;;5066604;28;19928;-45
2023/03/05 07:49:58;;;;;;;;;;;;;;;;;;5067392;28;19920;-44
2023/03/05 07:52:24;;;;;;;;;;;;;;;;;;5053112;28;20155;-44
2023/03/05 07:54:50;;;;;;;;;;;;;;;;;;5034391;28;19916;-44
2023/03/05 07:57:16;;;;;;;;;;;;;;;;;;5061706;28;19915;-45
2023/03/05 07:59:42;;;;;;;;;;;;;;;;;;5066862;28;19915;-44
2023/03/05 08:02:08;;;;;;;;;;;;;;;;;;5052252;28;19916;-46
2023/03/05 08:04:34;;;;;;;;;;;;;;;;;;5051519;28;19908;-44
2023/03/05 08:06:59;;;;;;;;;;;;;;;;;;5057363;28;20275;-45
2023/03/05 08:09:25;;;;;;;;;;;;;;;;;;5050861;28;20315;-47
2023/03/05 08:11:51;;;;;;;;;;;;;;;;;;5066787;28;19912;-44
2023/03/05 08:14:17;;;;;;;;;;;;;;;;;;5057776;28;20002;-46
2023/03/05 08:16:43;;;;;;;;;;;;;;;;;;5069459;28;19919;-44
2023/03/05 08:19:09;;;;;;;;;;;;;;;;;;5049930;28;19908;-48
2023/03/05 08:21:35;;;;;;;;;;;;;;;;;;5052974;28;19908;-45
2023/03/05 08:24:00;;;;;;;;;;;;;;;;;;5053989;28;19920;-45
2023/03/05 08:26:26;;;;;;;;;;;;;;;;;;5061019;28;19913;-45
2023/03/05 08:28:52;;;;;;;;;;;;;;;;;;5061293;28;20006;-45
2023/03/05 08:31:18;;;;;;;;;;;;;;;;;;5057043;28;20422;-45
2023/03/05 08:33:44;;;;;;;;;;;;;;;;;;5062820;28;19909;-44
2023/03/05 08:36:10;;;;;;;;;;;;;;;;;;5065034;28;19920;-45
2023/03/05 08:38:36;;;;;;;;;;;;;;;;;;5065910;28;20394;-46
2023/03/05 08:41:02;;;;;;;;;;;;;;;;;;5067048;28;20019;-45
2023/03/05 08:43:29;;;;;;;;;;;;;;;;;;5068301;28;19904;-47
2023/03/05 08:45:55;;;;;;;;;;;;;;;;;;5066871;28;20429;-46
2023/03/05 08:48:21;;;;;;;;;;;;;;;;;;5041139;28;20031;-45
2023/03/05 08:50:47;;;;;;;;;;;;;;;;;;5043616;28;19911;-45
2023/03/05 08:53:13;;;;;;;;;;;;;;;;;;5044987;28;19912;-46
2023/03/05 08:55:39;;;;;;;;;;;;;;;;;;5044961;28;19938;-46
2023/03/05 08:58:05;;;;;;;;;;;;;;;;;;5042577;28;19913;-46
2023/03/05 09:00:31;;;;;;;;;;;;;;;;;;5041424;28;19917;-44
2023/03/05 09:02:57;;;;;;;;;;;;;;;;;;5043463;28;19913;-47
2023/03/05 09:05:23;;;;;;;;;;;;;;;;;;5039057;28;19924;-45
2023/03/05 09:07:49;;;;;;;;;;;;;;;;;;5039095;28;20018;-45
2023/03/05 09:10:17;;;;;;;;;;;;;;;;;;5042122;28;19960;-43
2023/03/05 09:12:43;;;;;;;;;;;;;;;;;;5045117;28;19916;-46
2023/03/05 09:15:08;;;;;;;;;;;;;;;;;;5041082;28;20279;-46
2023/03/05 09:17:34;;;;;;;;;;;;;;;;;;5045996;28;19913;-43
2023/03/05 09:20:00;;;;;;;;;;;;;;;;;;5040452;28;20714;-45
2023/03/05 09:22:26;;;;;;;;;;;;;;;;;;5046247;28;20251;-45
2023/03/05 09:24:52;;;;;;;;;;;;;;;;;;5045403;28;19917;-43
2023/03/05 09:27:18;;;;;;;;;;;;;;;;;;5043512;28;19905;-45
2023/03/05 09:29:44;;;;;;;;;;;;;;;;;;5038723;28;19924;-46
2023/03/05 09:32:10;;;;;;;;;;;;;;;;;;5048259;28;19911;-45
2023/03/05 09:34:36;;;;;;;;;;;;;;;;;;5031652;28;19916;-45
2023/03/05 09:37:01;;;;;;;;;;;;;;;;;;5037954;28;19923;-50
2023/03/05 09:39:27;;;;;;;;;;;;;;;;;;5040679;28;20002;-46
2023/03/05 09:41:53;;;;;;;;;;;;;;;;;;5031101;28;19917;-44
2023/03/05 09:44:19;;;;;;;;;;;;;;;;;;5043123;28;20286;-44
2023/03/05 09:46:45;;;;;;;;;;;;;;;;;;5030679;28;19917;-44
2023/03/05 09:49:11;;;;;;;;;;;;;;;;;;5035097;28;19917;-44
2023/03/05 09:51:37;;;;;;;;;;;;;;;;;;5030207;28;19911;-43
2023/03/05 09:54:03;;;;;;;;;;;;;;;;;;5039223;28;19916;-43
2023/03/05 09:56:29;;;;;;;;;;;;;;;;;;5043575;28;19958;-43
2023/03/05 09:58:56;;;;;;;;;;;;;;;;;;5035688;28;20314;-43
2023/03/05 10:01:22;;;;;;;;;;;;;;;;;;5029163;28;19967;-43
2023/03/05 10:03:48;;;;;;;;;;;;;;;;;;5030906;28;19909;-43
2023/03/05 10:06:13;;;;;;;;;;;;;;;;;;5031955;28;20257;-43
2023/03/05 10:08:39;;;;;;;;;;;;;;;;;;5048843;28;19913;-45
2023/03/05 10:11:05;;;;;;;;;;;;;;;;;;5048597;28;19999;-44
2023/03/05 10:13:31;;;;;;;;;;;;;;;;;;5036279;28;19905;-43
2023/03/05 10:15:57;;;;;;;;;;;;;;;;;;5030520;28;19916;-43
2023/03/05 10:18:23;;;;;;;;;;;;;;;;;;5031148;28;20336;-43
2023/03/05 10:20:49;;;;;;;;;;;;;;;;;;5041601;28;19912;-43
2023/03/05 10:23:15;;;;;;;;;;;;;;;;;;5049144;28;20302;-44
2023/03/05 10:25:41;;;;;;;;;;;;;;;;;;5049332;28;19964;-44
2023/03/05 10:28:07;;;;;;;;;;;;;;;;;;5049691;28;19916;-47
2023/03/05 10:30:33;;;;;;;;;;;;;;;;;;5038395;28;20351;-44
2023/03/05 10:32:59;;;;;;;;;;;;;;;;;;5038419;28;19952;-43
2023/03/05 10:35:25;;;;;;;;;;;;;;;;;;5035436;28;19999;-43
2023/03/05 10:37:51;;;;;;;;;;;;;;;;;;5030802;28;20047;-44
2023/03/05 10:40:17;;;;;;;;;;;;;;;;;;5035391;28;20356;-43
2023/03/05 10:42:43;;;;;;;;;;;;;;;;;;5030671;28;19909;-44
2023/03/05 10:45:09;;;;;;;;;;;;;;;;;;5014218;28;19916;-45
2023/03/05 10:47:35;;;;;;;;;;;;;;;;;;5055556;28;19963;-43
2023/03/05 10:50:00;;;;;;;;;;;;;;;;;;5060303;28;19913;-44
2023/03/05 10:52:27;;;;;;;;;;;;;;;;;;5049844;28;19916;-44
2023/03/05 10:54:52;;;;;;;;;;;;;;;;;;5049645;28;19913;-42
2023/03/05 10:57:18;;;;;;;;;;;;;;;;;;5055551;28;19931;-44
2023/03/05 10:59:44;;;;;;;;;;;;;;;;;;5061994;28;19909;-40
2023/03/05 11:02:10;;;;;;;;;;;;;;;;;;5057081;28;19916;-40
2023/03/05 11:04:36;;;;;;;;;;;;;;;;;;5067210;28;19909;-43
2023/03/05 11:07:02;;;;;;;;;;;;;;;;;;5064065;28;19916;-42
2023/03/05 11:09:28;;;;;;;;;;;;;;;;;;5068097;28;19919;-43
2023/03/05 11:11:54;;;;;;;;;;;;;;;;;;5057546;28;20314;-43
2023/03/05 11:14:20;;;;;;;;;;;;;;;;;;5050932;28;19931;-43
2023/03/05 11:16:46;;;;;;;;;;;;;;;;;;5063816;28;19908;-41
2023/03/05 11:19:11;;;;;;;;;;;;;;;;;;5061320;28;19917;-40
2023/03/05 11:21:37;;;;;;;;;;;;;;;;;;5051960;28;20289;-42
2023/03/05 11:24:03;;;;;;;;;;;;;;;;;;5056903;28;19913;-47
2023/03/05 11:26:29;;;;;;;;;;;;;;;;;;5053953;28;20334;-44
2023/03/05 11:28:55;;;;;;;;;;;;;;;;;;5060292;28;19970;-45
2023/03/05 11:31:22;;;;;;;;;;;;;;;;;;5071401;28;19912;-44
2023/03/05 11:33:48;;;;;;;;;;;;;;;;;;5063381;28;19967;-42
2023/03/05 11:36:14;;;;;;;;;;;;;;;;;;5064279;28;19944;-43
2023/03/05 11:38:39;;;;;;;;;;;;;;;;;;5058612;28;19931;-43
2023/03/05 11:41:05;;;;;;;;;;;;;;;;;;5057332;28;19913;-43
2023/03/05 11:43:33;;;;;;;;;;;;;;;;;;5053115;28;19909;-41
2023/03/05 11:45:58;;;;;;;;;;;;;;;;;;5062474;28;19916;-42
2023/03/05 11:48:24;;;;;;;;;;;;;;;;;;5051928;28;19917;-44
2023/03/05 11:50:50;;;;;;;;;;;;;;;;;;5070697;28;20325;-40
2023/03/05 11:53:16;;;;;;;;;;;;;;;;;;5072048;28;19908;-45
2023/03/05 11:55:42;;;;;;;;;;;;;;;;;;5070846;28;19911;-41
2023/03/05 11:58:08;;;;;;;;;;;;;;;;;;5050553;28;19974;-44
2023/03/05 12:00:34;;;;;;;;;;;;;;;;;;5055154;28;20366;-45
2023/03/05 12:03:00;;;;;;;;;;;;;;;;;;5072336;28;19991;-46
2023/03/05 12:05:26;;;;;;;;;;;;;;;;;;5069547;28;19980;-43
2023/03/05 12:07:52;;;;;;;;;;;;;;;;;;5067254;28;20390;-42
2023/03/05 12:10:17;;;;;;;;;;;;;;;;;;5069033;28;19908;-44
2023/03/05 12:12:43;;;;;;;;;;;;;;;;;;5063852;28;19909;-42
2023/03/05 12:15:09;;;;;;;;;;;;;;;;;;5067313;28;20003;-41
2023/03/05 12:17:35;;;;;;;;;;;;;;;;;;5071536;28;19919;-41
2023/03/05 12:20:03;;;;;;;;;;;;;;;;;;5066028;28;19939;-42
2023/03/05 12:22:29;;;;;;;;;;;;;;;;;;5069012;28;19913;-43
2023/03/05 12:24:55;;;;;;;;;;;;;;;;;;5063282;28;19924;-44
2023/03/05 12:27:21;;;;;;;;;;;;;;;;;;5051551;28;19908;-42
2023/03/05 12:29:47;;;;;;;;;;;;;;;;;;5059332;28;20292;-42
2023/03/05 12:32:13;;;;;;;;;;;;;;;;;;5054449;28;19912;-43
2023/03/05 12:34:39;;;;;;;;;;;;;;;;;;5059005;28;20421;-42
2023/03/05 12:37:05;;;;;;;;;;;;;;;;;;5051527;28;19916;-43
2023/03/05 12:39:31;;;;;;;;;;;;;;;;;;5051526;28;19913;-43
2023/03/05 12:41:57;;;;;;;;;;;;;;;;;;5052986;28;19908;-43
2023/03/05 12:44:23;;;;;;;;;;;;;;;;;;5056615;28;19912;-42
2023/03/05 12:46:49;;;;;;;;;;;;;;;;;;5063701;28;19921;-42
2023/03/05 12:49:14;;;;;;;;;;;;;;;;;;5063717;28;20362;-43
2023/03/05 12:51:40;;;;;;;;;;;;;;;;;;5053513;28;19942;-42
2023/03/05 12:54:06;;;;;;;;;;;;;;;;;;5056070;28;20063;-43
2023/03/05 12:56:32;;;;;;;;;;;;;;;;;;5053198;28;20401;-42
2023/03/05 12:58:58;;;;;;;;;;;;;;;;;;5052662;28;19909;-42
2023/03/05 13:01:24;;;;;;;;;;;;;;;;;;5065904;28;19908;-42
2023/03/05 13:03:50;;;;;;;;;;;;;;;;;;5066464;28;20021;-43
2023/03/05 13:06:16;;;;;;;;;;;;;;;;;;5057316;28;20002;-43
2023/03/05 13:08:42;;;;;;;;;;;;;;;;;;5067476;28;19939;-43
2023/03/05 13:11:08;;;;;;;;;;;;;;;;;;5069132;28;19908;-43
2023/03/05 13:13:34;;;;;;;;;;;;;;;;;;5061410;28;19955;-42
2023/03/05 13:16:00;;;;;;;;;;;;;;;;;;5051970;28;19932;-42
2023/03/05 13:18:25;;;;;;;;;;;;;;;;;;5051762;28;19909;-43
2023/03/05 13:20:55;;;;;;;;;;;;;;;;;;5053198;28;20341;-43
2023/03/05 13:23:21;;;;;;;;;;;;;;;;;;5052648;28;19909;-42
2023/03/05 13:25:46;;;;;;;;;;;;;;;;;;5051975;28;19917;-43
2023/03/05 13:28:12;;;;;;;;;;;;;;;;;;5051997;28;20321;-45
2023/03/05 13:30:38;;;;;;;;;;;;;;;;;;5071617;28;20048;-43
2023/03/05 13:33:04;;;;;;;;;;;;;;;;;;5053144;28;20705;-46
2023/03/05 13:35:30;;;;;;;;;;;;;;;;;;5051713;28;19909;-42
2023/03/05 13:37:56;;;;;;;;;;;;;;;;;;5051860;28;19931;-41
2023/03/05 13:40:22;;;;;;;;;;;;;;;;;;5058694;28;19915;-42
2023/03/05 13:42:48;;;;;;;;;;;;;;;;;;5059051;28;20404;-42
2023/03/05 13:45:13;;;;;;;;;;;;;;;;;;5070006;28;19912;-43
2023/03/05 13:47:39;;;;;;;;;;;;;;;;;;5063280;28;19920;-42
2023/03/05 13:50:05;;;;;;;;;;;;;;;;;;5063406;28;19913;-43
2023/03/05 13:52:31;;;;;;;;;;;;;;;;;;5051387;28;19909;-42
2023/03/05 13:54:57;;;;;;;;;;;;;;;;;;5058359;28;20274;-44
2023/03/05 13:57:23;;;;;;;;;;;;;;;;;;5053345;28;19908;-44
2023/03/05 13:59:49;;;;;;;;;;;;;;;;;;5051356;28;19915;-42
2023/03/05 14:02:15;;;;;;;;;;;;;;;;;;5056764;28;19915;-43
2023/03/05 14:04:41;;;;;;;;;;;;;;;;;;5071047;28;19915;-43
2023/03/05 14:07:07;;;;;;;;;;;;;;;;;;5065622;28;19925;-47
2023/03/05 14:09:32;;;;;;;;;;;;;;;;;;5059560;28;19939;-42
2023/03/05 14:11:58;;;;;;;;;;;;;;;;;;5051765;28;19920;-44
2023/03/05 14:14:24;;;;;;;;;;;;;;;;;;5056031;28;20326;-43
2023/03/05 14:16:50;;;;;;;;;;;;;;;;;;5057411;28;19912;-42
2023/03/05 14:19:16;;;;;;;;;;;;;;;;;;5069602;28;19909;-42
2023/03/05 14:21:42;;;;;;;;;;;;;;;;;;5071374;28;20085;-42
2023/03/05 14:24:08;;;;;;;;;;;;;;;;;;5070643;28;19912;-43
2023/03/05 14:26:34;;;;;;;;;;;;;;;;;;5051163;28;19999;-42
2023/03/05 14:29:00;;;;;;;;;;;;;;;;;;5053505;28;19919;-42
2023/03/05 14:31:26;;;;;;;;;;;;;;;;;;5058152;28;19908;-42
2023/03/05 14:33:52;;;;;;;;;;;;;;;;;;5071274;28;19944;-42
2023/03/05 14:36:18;;;;;;;;;;;;;;;;;;5058736;28;19953;-41
2023/03/05 14:38:44;;;;;;;;;;;;;;;;;;5055300;28;19995;-42
2023/03/05 14:41:10;;;;;;;;;;;;;;;;;;5066191;28;19908;-42
2023/03/05 14:43:35;;;;;;;;;;;;;;;;;;5059820;28;20526;-42
2023/03/05 14:46:02;;;;;;;;;;;;;;;;;;5063592;28;19912;-42
2023/03/05 14:48:28;;;;;;;;;;;;;;;;;;5071559;28;20384;-42
2023/03/05 14:50:55;;;;;;;;;;;;;;;;;;5073024;28;19944;-42
2023/03/05 14:53:21;;;;;;;;;;;;;;;;;;5073981;28;19915;-42
2023/03/05 14:55:49;;;;;;;;;;;;;;;;;;5069691;28;19913;-42
2023/03/05 14:58:14;;;;;;;;;;;;;;;;;;5067211;28;19908;-42
2023/03/05 15:00:40;;;;;;;;;;;;;;;;;;5057611;28;20400;-44
2023/03/05 15:03:06;;;;;;;;;;;;;;;;;;5067166;28;19935;-43
2023/03/05 15:05:32;;;;;;;;;;;;;;;;;;5072892;28;19919;-42
2023/03/05 15:07:59;;;;;;;;;;;;;;;;;;5074530;28;19909;-41
2023/03/05 15:10:25;;;;;;;;;;;;;;;;;;5073142;28;19904;-41
2023/03/05 15:12:52;;;;;;;;;;;;;;;;;;5073702;28;20619;-42
2023/03/05 15:15:18;;;;;;;;;;;;;;;;;;5064631;28;20354;-42
2023/03/05 15:17:46;;;;;;;;;;;;;;;;;;5054803;28;19908;-43
2023/03/05 15:20:12;;;;;;;;;;;;;;;;;;5053419;28;20354;-42
2023/03/05 15:22:38;;;;;;;;;;;;;;;;;;5073725;28;19916;-41
2023/03/05 15:25:03;;;;;;;;;;;;;;;;;;5071940;28;20274;-41
2023/03/05 15:27:29;;;;;;;;;;;;;;;;;;5059087;28;19909;-41
2023/03/05 15:29:55;;;;;;;;;;;;;;;;;;5070592;28;20370;-42
2023/03/05 15:32:21;;;;;;;;;;;;;;;;;;5057913;28;20010;-42
2023/03/05 15:34:47;;;;;;;;;;;;;;;;;;5063061;28;19915;-42
2023/03/05 15:37:13;;;;;;;;;;;;;;;;;;5065558;28;19909;-46
2023/03/05 15:39:39;;;;;;;;;;;;;;;;;;5054669;28;19991;-42
2023/03/05 15:42:05;;;;;;;;;;;;;;;;;;5059617;28;19914;-42
2023/03/05 15:44:30;;;;;;;;;;;;;;;;;;5056698;28;20287;-42
2023/03/05 15:46:57;;;;;;;;;;;;;;;;;;5053265;28;19917;-42
2023/03/05 15:49:23;;;;;;;;;;;;;;;;;;5054393;28;19920;-42
2023/03/05 15:51:49;;;;;;;;;;;;;;;;;;5069335;28;20306;-42
2023/03/05 15:54:15;;;;;;;;;;;;;;;;;;5052907;28;19931;-43
2023/03/05 15:56:41;;;;;;;;;;;;;;;;;;5066209;28;19915;-42
2023/03/05 15:59:08;;;;;;;;;;;;;;;;;;5059084;28;19909;-44
2023/03/05 16:01:34;;;;;;;;;;;;;;;;;;5060498;28;20279;-42
2023/03/05 16:04:01;;;;;;;;;;;;;;;;;;5057761;28;19916;-44
2023/03/05 16:06:27;;;;;;;;;;;;;;;;;;5052543;28;19901;-42
2023/03/05 16:08:53;;;;;;;;;;;;;;;;;;5054027;28;19920;-42
2023/03/05 16:11:18;;;;;;;;;;;;;;;;;;5066298;28;19932;-42
2023/03/05 16:13:44;;;;;;;;;;;;;;;;;;5073135;28;20359;-42
2023/03/05 16:16:10;;;;;;;;;;;;;;;;;;5071885;28;19904;-45
2023/03/05 16:18:36;;;;;;;;;;;;;;;;;;5071273;28;19908;-42
2023/03/05 16:21:02;;;;;;;;;;;;;;;;;;5072602;28;19912;-42
2023/03/05 16:23:28;;;;;;;;;;;;;;;;;;5072281;28;19901;-42
2023/03/05 16:25:54;;;;;;;;;;;;;;;;;;5067911;28;19915;-42
2023/03/05 16:28:20;;;;;;;;;;;;;;;;;;5056399;28;19917;-42
2023/03/05 16:30:46;;;;;;;;;;;;;;;;;;5059755;28;20392;-42
2023/03/05 16:33:12;;;;;;;;;;;;;;;;;;5053827;28;19908;-42
2023/03/05 16:35:37;;;;;;;;;;;;;;;;;;5071652;28;19920;-42